Quinnesec, MI

10:40 AM CDT on July 05, 2015 (GMT -0500)
Norway VV | | Change Station
CLOSE
Current Station
Personal Weather Station
Location: Norway, MI
Elevation: 1129 ft
Nearby Weather Stations

Elev 1129 ft 45.80 °N, 87.93 °W | Updated 3 minutes ago

Clear
Clear
81.5 °F
Feels Like 84 °F
N
2.7
Wind Variable Wind from West

Today
High -- | Low -- °F
--% Chance of Precip.
Yesterday
High -- | Low -- °F
Precip. -- in
5:08 AM 8:44 PM
Waning Gibbous, 84% visible
Pressure 30.00 in
Visibility 8.0 miles
Clouds Clear
Heat Index 84 °F
Dew Point 66 °F
Humidity 59%
Rainfall 0.00 in
Snow Depth Not available.
UV 7 out of 12
Pollen 4.90 out of 12
Air Quality Not available.
Flu Activity Not available.
METAR KIMT 051454Z AUTO 20006KT 8SM CLR 25/18 A3001 RMK AO2 SLP159 T02500178 55003 TSNO

More Conditions Fewer Conditions

Pressure 30.00 in
Visibility 8.0 miles
Clouds Clear
Heat Index 84 °F
Dew Point 66 °F
Humidity 59%
Rainfall 0.00 in
Snow Depth Not available.
UV 7 out of 12
Pollen 4.90 out of 12
Air Quality Not available.
Flu Activity Not available.
METAR KIMT 051454Z AUTO 20006KT 8SM CLR 25/18 A3001 RMK AO2 SLP159 T02500178 55003 TSNO

More Conditions Fewer Conditions

10-Day Weather Forecast

×

Almanac

Astronomy

Jul. 05, 2015 Rise Set
Actual Time
Civil Twilight
Nautical Twilight
Astronomical Twilight
Moon
Length of Visible Light
Length of Day
Tomorrow will be .
, % of the Moon is Illuminated

Today's Extremes

State Highs State Lows

Community

WunderPhotos

Upload Photos

1,835,299 photos uploaded!

WunderBlogs® & News

Nearby

Air Quality

  Air Quality AQ Index Pollutant
Not available.

Snow Depth

Station Depth Elevation

Earthquake Activity

City Distance Mag. Time & Date
Minimum magnitude displayed is 2.5.

Coastal Water Temperatures

Place Temperature

Stations

Nearby Weather Stations

Station Location Temp. Windchill Dew Point Humidity Wind Precip. Elev Updated Type